Time;durP1;ratioP1;P1;durP2;ratioP2;P2;SDS_P1;SDS_P2;PMS_P1;PMS_P2;Temp;Humidity;BMP_temperature;BMP_pressure;BME280_temperature;BME280_humidity;BME280_pressure;Samples;Min_cycle;Max_cycle;Signal;HPM_P1;HPM_P2
2023/12/30 00:01:58;;;;;;;17.48;3.45;;;8.50;94.20;;;;;;5053805;28;20025;-76
2023/12/30 00:04:24;;;;;;;19.85;3.55;;;8.50;94.30;;;;;;5052800;28;20043;-76
2023/12/30 00:06:50;;;;;;;19.10;4.80;;;8.40;94.40;;;;;;5057662;28;20020;-74
2023/12/30 00:09:16;;;;;;;20.35;3.92;;;8.40;94.40;;;;;;5053262;28;20033;-73
2023/12/30 00:11:42;;;;;;;18.25;3.78;;;8.40;94.40;;;;;;5058228;28;20033;-75
2023/12/30 00:14:08;;;;;;;12.23;3.92;;;8.40;94.60;;;;;;5054046;28;20090;-74
2023/12/30 00:16:33;;;;;;;20.33;4.25;;;8.40;94.70;;;;;;5058097;28;20041;-74
2023/12/30 00:19:01;;;;;;;23.08;4.50;;;8.30;94.80;;;;;;5051897;28;20029;-74
2023/12/30 00:21:26;;;;;;;18.20;3.95;;;8.30;94.90;;;;;;5055333;28;20503;-74
2023/12/30 00:23:52;;;;;;;15.10;3.33;;;8.30;95.00;;;;;;5050725;28;20024;-76
2023/12/30 00:26:22;;;;;;;19.45;3.80;;;8.30;95.10;;;;;;5049800;28;20033;-75
2023/12/30 00:28:49;;;;;;;17.20;3.67;;;8.20;95.10;;;;;;5056730;28;20495;-76
2023/12/30 00:31:25;;;;;;;23.98;4.65;;;8.20;95.20;;;;;;5051689;28;20016;-76
2023/12/30 00:33:57;;;;;;;19.90;4.00;;;8.30;95.40;;;;;;5054446;28;20029;-76
2023/12/30 00:36:23;;;;;;;22.52;3.83;;;8.20;95.40;;;;;;5052856;28;20461;-76
2023/12/30 00:38:49;;;;;;;18.45;3.47;;;8.30;95.40;;;;;;5050766;28;20457;-75
2023/12/30 00:41:15;;;;;;;15.82;4.25;;;8.30;95.50;;;;;;5053966;28;20467;-76
2023/12/30 00:43:41;;;;;;;21.00;4.35;;;8.30;95.60;;;;;;5064093;28;20037;-75
2023/12/30 00:46:08;;;;;;;13.38;3.72;;;8.30;95.60;;;;;;5073612;28;20013;-76
2023/12/30 00:48:34;;;;;;;19.45;3.40;;;8.30;95.60;;;;;;5075895;28;20052;-76
2023/12/30 00:51:01;;;;;;;18.58;3.72;;;8.20;95.60;;;;;;5073159;28;20020;-75
2023/12/30 00:53:27;;;;;;;16.63;3.88;;;8.20;95.60;;;;;;5076472;28;20039;-76
2023/12/30 00:55:56;;;;;;;17.15;4.07;;;8.20;95.70;;;;;;5078245;28;20272;-75
2023/12/30 00:58:22;;;;;;;20.05;4.38;;;8.30;95.70;;;;;;5072189;28;20037;-76
2023/12/30 01:00:50;;;;;;;20.55;3.85;;;8.30;95.60;;;;;;5062205;28;20024;-75
2023/12/30 01:03:16;;;;;;;21.55;3.95;;;8.20;95.60;;;;;;5073082;28;20039;-76
2023/12/30 01:05:43;;;;;;;17.50;4.07;;;8.30;95.60;;;;;;5076858;28;20025;-75
2023/12/30 01:08:08;;;;;;;22.90;4.60;;;8.30;95.50;;;;;;5077570;28;20046;-75
2023/12/30 01:10:34;;;;;;;22.15;3.83;;;8.30;95.50;;;;;;5078908;28;20068;-75
2023/12/30 01:13:00;;;;;;;19.55;4.15;;;8.30;95.60;;;;;;5064963;28;20609;-75
2023/12/30 01:15:26;;;;;;;21.70;4.05;;;8.30;95.50;;;;;;5053499;28;20443;-75
2023/12/30 01:17:52;;;;;;;26.42;4.97;;;8.30;95.60;;;;;;5049162;28;20075;-75
2023/12/30 01:20:17;;;;;;;18.23;3.92;;;8.30;95.50;;;;;;5051039;28;20250;-75
2023/12/30 01:22:43;;;;;;;18.73;3.72;;;8.20;95.50;;;;;;5052467;28;20397;-75
2023/12/30 01:25:09;;;;;;;19.42;4.45;;;8.20;95.60;;;;;;5046014;28;20031;-75
2023/12/30 01:27:34;;;;;;;20.60;4.35;;;8.30;95.50;;;;;;5052739;28;20457;-75
2023/12/30 01:30:00;;;;;;;20.48;4.13;;;8.30;95.60;;;;;;5041812;28;20032;-75
2023/12/30 01:32:26;;;;;;;19.33;3.17;;;8.30;95.50;;;;;;5072322;28;20040;-75
2023/12/30 01:34:51;;;;;;;17.38;3.60;;;8.30;95.50;;;;;;5072619;28;20025;-74
2023/12/30 01:37:18;;;;;;;18.45;4.75;;;8.40;95.50;;;;;;5064826;28;20529;-76
2023/12/30 01:39:43;;;;;;;26.75;4.78;;;8.40;95.40;;;;;;5054731;28;20028;-75
2023/12/30 01:42:09;;;;;;;24.35;4.45;;;8.40;95.30;;;;;;5051714;28;20020;-74
2023/12/30 01:44:35;;;;;;;14.60;4.30;;;8.50;95.20;;;;;;5054568;28;20469;-75
2023/12/30 01:47:01;;;;;;;18.27;3.50;;;8.40;95.10;;;;;;5049276;28;20090;-74
2023/12/30 01:49:27;;;;;;;24.38;4.68;;;8.40;95.20;;;;;;5047623;28;20117;-75
2023/12/30 01:51:53;;;;;;;18.20;4.55;;;8.40;95.30;;;;;;5048353;28;20057;-76
2023/12/30 01:54:21;;;;;;;19.17;3.95;;;8.40;95.40;;;;;;5048347;28;20452;-77
2023/12/30 01:56:50;;;;;;;20.85;5.32;;;8.30;95.60;;;;;;5049705;28;20029;-76
2023/12/30 01:59:18;;;;;;;27.40;4.93;;;8.40;95.70;;;;;;5052666;28;20063;-76
2023/12/30 02:01:45;;;;;;;24.20;5.05;;;8.30;95.70;;;;;;5053524;28;20022;-75
2023/12/30 02:04:11;;;;;;;17.08;4.32;;;8.30;95.80;;;;;;5044189;28;20147;-76
2023/12/30 02:06:39;;;;;;;28.48;4.43;;;8.20;95.80;;;;;;5054153;28;20017;-75
2023/12/30 02:09:08;;;;;;;21.90;4.75;;;8.30;96.00;;;;;;5053246;28;20714;-75
2023/12/30 02:11:34;;;;;;;27.17;5.40;;;8.30;96.00;;;;;;5052436;28;20283;-74
2023/12/30 02:14:00;;;;;;;25.33;5.95;;;8.30;96.10;;;;;;5045538;28;20052;-74
2023/12/30 02:16:26;;;;;;;23.65;4.50;;;8.30;96.10;;;;;;5054482;28;20040;-76
2023/12/30 02:18:52;;;;;;;19.60;4.18;;;8.20;96.10;;;;;;5051600;28;20039;-76
2023/12/30 02:21:17;;;;;;;27.98;4.70;;;8.20;96.20;;;;;;5036426;28;20027;-74
2023/12/30 02:23:43;;;;;;;30.05;4.80;;;8.20;96.10;;;;;;5054734;28;20048;-77
2023/12/30 02:26:08;;;;;;;16.83;3.50;;;8.20;96.10;;;;;;5049321;28;20039;-75
2023/12/30 02:28:34;;;;;;;23.65;4.45;;;8.20;96.20;;;;;;5053568;28;20067;-75
2023/12/30 02:31:00;;;;;;;25.15;5.05;;;8.20;96.20;;;;;;5038771;28;20035;-75
2023/12/30 02:33:26;;;;;;;23.20;4.63;;;8.20;96.30;;;;;;5049867;28;20056;-75
2023/12/30 02:35:52;;;;;;;28.20;4.40;;;8.30;96.30;;;;;;5044562;28;20113;-74
2023/12/30 02:38:17;;;;;;;24.20;4.72;;;8.30;96.20;;;;;;5046534;28;20040;-75
2023/12/30 02:40:44;;;;;;;23.42;4.43;;;8.20;96.10;;;;;;5054524;28;20473;-75
2023/12/30 02:43:10;;;;;;;22.35;4.03;;;8.30;96.10;;;;;;5050909;28;20036;-76
2023/12/30 02:45:36;;;;;;;18.95;4.30;;;8.30;96.10;;;;;;5046478;28;20024;-74
2023/12/30 02:48:02;;;;;;;27.95;5.47;;;8.30;96.00;;;;;;5047276;28;20036;-74
2023/12/30 02:50:28;;;;;;;20.95;4.28;;;8.30;96.00;;;;;;5049540;28;20040;-75
2023/12/30 02:52:53;;;;;;;19.02;3.70;;;8.30;96.00;;;;;;5046082;28;20441;-76
2023/12/30 02:55:19;;;;;;;27.25;5.15;;;8.30;96.00;;;;;;5054284;28;20036;-75
2023/12/30 02:57:45;;;;;;;18.63;4.07;;;8.30;96.00;;;;;;5051994;28;20468;-75
2023/12/30 03:00:11;;;;;;;22.17;3.83;;;8.20;96.00;;;;;;5051771;28;20373;-75
2023/12/30 03:02:37;;;;;;;21.08;3.75;;;8.20;95.90;;;;;;5049770;28;20058;-75
2023/12/30 03:05:03;;;;;;;19.88;4.35;;;8.20;95.90;;;;;;5050572;28;20020;-76
2023/12/30 03:07:29;;;;;;;21.50;4.50;;;8.10;96.00;;;;;;5049789;28;20025;-76
2023/12/30 03:09:54;;;;;;;18.98;4.18;;;8.20;95.90;;;;;;5049601;28;20029;-75
2023/12/30 03:12:20;;;;;;;15.27;3.20;;;8.10;95.90;;;;;;5049611;28;20029;-75
2023/12/30 03:14:45;;;;;;;20.92;3.90;;;8.10;96.00;;;;;;5054562;28;20033;-75
2023/12/30 03:17:11;;;;;;;20.15;3.38;;;8.10;96.10;;;;;;5046131;28;20032;-76
2023/12/30 03:19:37;;;;;;;25.23;4.25;;;8.10;96.00;;;;;;5052788;28;20024;-75
2023/12/30 03:22:03;;;;;;;25.48;3.60;;;8.10;96.00;;;;;;5054630;28;20043;-75
2023/12/30 03:24:28;;;;;;;22.67;4.13;;;8.10;96.10;;;;;;5056423;28;20455;-74
2023/12/30 03:26:54;;;;;;;21.45;3.90;;;8.10;96.10;;;;;;5055221;28;20052;-76
2023/12/30 03:29:22;;;;;;;21.77;4.47;;;8.10;96.10;;;;;;5053244;28;20059;-76
2023/12/30 03:31:47;;;;;;;24.80;4.40;;;8.00;96.10;;;;;;5056533;28;20044;-76
2023/12/30 03:34:13;;;;;;;18.85;3.42;;;8.00;96.20;;;;;;5054128;28;20079;-75
2023/12/30 03:36:38;;;;;;;23.02;4.47;;;8.00;96.30;;;;;;5038126;28;20395;-76
2023/12/30 03:39:05;;;;;;;16.45;4.15;;;8.10;96.50;;;;;;5057957;28;20029;-75
2023/12/30 03:41:31;;;;;;;21.05;4.03;;;8.10;96.50;;;;;;5055954;28;20025;-75
2023/12/30 03:43:56;;;;;;;23.30;4.75;;;8.10;96.50;;;;;;5053599;28;20024;-76
2023/12/30 03:46:22;;;;;;;27.83;3.92;;;8.10;96.40;;;;;;5054619;28;20085;-75
2023/12/30 03:48:47;;;;;;;17.92;3.75;;;8.10;96.50;;;;;;5055886;28;20453;-75
2023/12/30 03:51:13;;;;;;;19.20;4.40;;;8.10;96.40;;;;;;5056361;28;20033;-75
2023/12/30 03:53:38;;;;;;;17.63;3.55;;;8.10;96.40;;;;;;5056714;28;20491;-75
2023/12/30 03:56:05;;;;;;;18.70;5.32;;;8.10;96.30;;;;;;5051839;28;20287;-76
2023/12/30 03:58:30;;;;;;;21.95;4.55;;;8.00;96.40;;;;;;5053905;28;20081;-74
2023/12/30 04:00:56;;;;;;;24.05;4.43;;;8.00;96.40;;;;;;5055996;28;20056;-75
2023/12/30 04:03:22;;;;;;;15.60;4.18;;;8.00;96.50;;;;;;5054972;28;20063;-76
2023/12/30 04:05:47;;;;;;;22.15;4.97;;;8.00;96.50;;;;;;5056362;28;20488;-76
2023/12/30 04:08:13;;;;;;;20.67;4.47;;;8.00;96.50;;;;;;5052113;28;20029;-76
2023/12/30 04:10:38;;;;;;;17.15;3.47;;;7.90;96.60;;;;;;5052281;28;20145;-75
2023/12/30 04:13:04;;;;;;;18.48;3.58;;;7.90;96.50;;;;;;5054766;28;20052;-75
2023/12/30 04:15:30;;;;;;;18.95;3.47;;;7.90;96.50;;;;;;5055018;28;20047;-75
2023/12/30 04:17:56;;;;;;;20.15;3.50;;;7.90;96.50;;;;;;5049267;28;20182;-76
2023/12/30 04:20:21;;;;;;;19.60;3.20;;;7.80;96.60;;;;;;5048804;28;20139;-75
2023/12/30 04:22:47;;;;;;;19.77;3.85;;;7.80;96.50;;;;;;5049780;28;20159;-75
2023/12/30 04:25:13;;;;;;;17.13;3.38;;;7.80;96.60;;;;;;5058934;28;20055;-74
2023/12/30 04:27:39;;;;;;;17.23;4.15;;;7.80;96.60;;;;;;5053314;28;20037;-75
2023/12/30 04:30:05;;;;;;;21.92;3.95;;;7.80;96.50;;;;;;5054596;28;20024;-76
2023/12/30 04:32:30;;;;;;;18.27;3.42;;;7.70;96.50;;;;;;5055050;28;20747;-77
2023/12/30 04:34:56;;;;;;;19.83;3.88;;;7.70;96.50;;;;;;5038536;28;20029;-76
2023/12/30 04:37:22;;;;;;;20.35;3.17;;;7.60;96.50;;;;;;5053144;28;20055;-75
2023/12/30 04:39:47;;;;;;;19.10;3.88;;;7.60;96.50;;;;;;5056052;28;20607;-75
2023/12/30 04:42:14;;;;;;;13.90;3.42;;;7.50;96.50;;;;;;5054087;28;20462;-74
2023/12/30 04:44:40;;;;;;;17.52;3.38;;;7.50;96.60;;;;;;5052492;28;20531;-75
2023/12/30 04:47:06;;;;;;;16.10;3.85;;;7.50;96.70;;;;;;5056513;28;20028;-76
2023/12/30 04:49:32;;;;;;;21.75;3.40;;;7.40;96.70;;;;;;5055379;28;20746;-74
2023/12/30 04:51:58;;;;;;;18.23;4.13;;;7.40;96.80;;;;;;5047029;28;20499;-74
2023/12/30 04:54:25;;;;;;;15.68;3.65;;;7.50;96.80;;;;;;5052098;28;20111;-77
2023/12/30 04:56:51;;;;;;;14.27;3.28;;;7.50;97.00;;;;;;5052979;28;20057;-74
2023/12/30 04:59:17;;;;;;;19.92;3.95;;;7.50;96.90;;;;;;5053209;28;20717;-75
2023/12/30 05:01:43;;;;;;;19.40;4.03;;;7.50;96.90;;;;;;5050122;28;20035;-74
2023/12/30 05:04:09;;;;;;;22.05;5.80;;;7.50;96.80;;;;;;5050128;28;20029;-76
2023/12/30 05:06:34;;;;;;;19.20;4.38;;;7.50;96.90;;;;;;5053786;28;20032;-75
2023/12/30 05:09:01;;;;;;;19.75;3.17;;;7.60;97.00;;;;;;5049434;28;20033;-75
2023/12/30 05:11:26;;;;;;;20.50;4.32;;;7.60;96.90;;;;;;5052772;28;20028;-75
2023/12/30 05:13:52;;;;;;;26.50;4.65;;;7.60;97.00;;;;;;5029024;28;20078;-76
2023/12/30 05:16:18;;;;;;;20.05;4.05;;;7.60;97.00;;;;;;5052002;28;20338;-75
2023/12/30 05:18:44;;;;;;;19.35;4.15;;;7.60;97.00;;;;;;5049487;28;20037;-76
2023/12/30 05:21:16;;;;;;;17.70;4.03;;;7.70;97.00;;;;;;5049769;28;20021;-75
2023/12/30 05:23:43;;;;;;;17.67;4.15;;;7.70;97.00;;;;;;5036712;28;20346;-75
2023/12/30 05:26:12;;;;;;;20.98;4.43;;;7.70;97.10;;;;;;5047408;28;20102;-75
2023/12/30 05:28:37;;;;;;;18.42;3.90;;;7.70;97.20;;;;;;5049864;28;20040;-76
2023/12/30 05:31:03;;;;;;;20.17;5.22;;;7.70;97.20;;;;;;5052978;28;20021;-74
2023/12/30 05:33:29;;;;;;;18.08;3.50;;;7.70;97.20;;;;;;5054022;28;20048;-75
2023/12/30 05:35:55;;;;;;;18.88;4.60;;;7.70;97.20;;;;;;5056393;28;20092;-74
2023/12/30 05:38:21;;;;;;;18.23;3.95;;;7.70;97.20;;;;;;5043333;28;20041;-75
2023/12/30 05:40:47;;;;;;;19.90;4.05;;;7.80;97.20;;;;;;5053651;28;20021;-75
2023/12/30 05:43:12;;;;;;;18.30;3.88;;;7.80;97.20;;;;;;5054700;28;20082;-74
2023/12/30 05:45:39;;;;;;;19.80;4.57;;;7.70;97.30;;;;;;5055323;28;20016;-74
2023/12/30 05:48:05;;;;;;;22.50;4.50;;;7.70;97.20;;;;;;5044146;28;20086;-74
2023/12/30 05:50:30;;;;;;;24.92;4.68;;;7.80;97.30;;;;;;5056667;28;20037;-75
2023/12/30 05:52:56;;;;;;;21.52;4.63;;;7.70;97.20;;;;;;5036019;28;20354;-75
2023/12/30 05:55:22;;;;;;;23.10;4.57;;;7.70;97.20;;;;;;5034014;28;20045;-74
2023/12/30 05:57:47;;;;;;;17.35;4.15;;;7.70;97.20;;;;;;5051903;28;20127;-74
2023/12/30 06:00:15;;;;;;;20.48;4.95;;;7.60;97.30;;;;;;5047356;28;20129;-75
2023/12/30 06:02:41;;;;;;;17.60;5.07;;;7.60;97.30;;;;;;5048924;28;20060;-74
2023/12/30 06:05:07;;;;;;;22.42;4.45;;;7.60;97.40;;;;;;5052010;28;20048;-74
2023/12/30 06:07:32;;;;;;;17.77;4.10;;;7.60;97.40;;;;;;5052862;28;20118;-75
2023/12/30 06:09:58;;;;;;;21.23;4.00;;;7.60;97.40;;;;;;5050759;28;20428;-75
2023/12/30 06:12:24;;;;;;;27.75;5.90;;;7.70;97.50;;;;;;5049932;28;20028;-74
2023/12/30 06:14:49;;;;;;;21.45;4.43;;;7.70;97.50;;;;;;5053671;28;20104;-75
2023/12/30 06:17:15;;;;;;;18.52;4.63;;;7.60;97.50;;;;;;5053721;28;20070;-75
2023/12/30 06:19:40;;;;;;;20.88;5.47;;;7.60;97.50;;;;;;5049506;28;20025;-75
2023/12/30 06:22:06;;;;;;;24.38;5.10;;;7.60;97.50;;;;;;5051748;28;20114;-75
2023/12/30 06:24:33;;;;;;;19.60;4.88;;;7.70;97.50;;;;;;5054830;28;20082;-74
2023/12/30 06:27:00;;;;;;;20.73;4.70;;;7.70;97.50;;;;;;5051844;28;20064;-75
2023/12/30 06:29:26;;;;;;;21.42;5.25;;;7.70;97.60;;;;;;5051810;28;20192;-74
2023/12/30 06:31:53;;;;;;;22.08;5.55;;;7.60;97.60;;;;;;5038103;28;20036;-74
2023/12/30 06:34:18;;;;;;;25.25;5.43;;;7.70;97.60;;;;;;5046688;28;20052;-76
2023/12/30 06:36:45;;;;;;;20.08;4.03;;;7.60;97.60;;;;;;5072905;28;20032;-75
2023/12/30 06:39:15;;;;;;;21.35;5.22;;;7.60;97.50;;;;;;5078074;28;20043;-75
2023/12/30 06:41:41;;;;;;;26.83;6.13;;;7.60;97.50;;;;;;5075649;28;20122;-75
2023/12/30 06:44:08;;;;;;;22.52;4.97;;;7.60;97.50;;;;;;5048606;28;20704;-75
2023/12/30 06:46:33;;;;;;;26.25;5.45;;;7.60;97.60;;;;;;5046314;28;20027;-74
2023/12/30 06:48:59;;;;;;;22.85;5.70;;;7.60;97.60;;;;;;5047197;28;20044;-75
2023/12/30 06:51:26;;;;;;;25.00;7.03;;;7.60;97.50;;;;;;5052365;28;20024;-75
2023/12/30 06:53:52;;;;;;;18.98;5.00;;;7.60;97.50;;;;;;5053076;28;20067;-75
2023/12/30 06:56:18;;;;;;;22.92;5.75;;;7.60;97.50;;;;;;5058954;28;20111;-74
2023/12/30 06:58:45;;;;;;;21.55;4.53;;;7.60;97.60;;;;;;5054950;28;20036;-75
2023/12/30 07:01:12;;;;;;;21.40;5.00;;;7.60;97.50;;;;;;5055788;28;20084;-74
2023/12/30 07:03:37;;;;;;;28.17;5.68;;;7.60;97.50;;;;;;5037129;28;20443;-75
2023/12/30 07:06:03;;;;;;;25.73;6.00;;;7.60;97.60;;;;;;5056885;28;20350;-74
2023/12/30 07:08:28;;;;;;;23.13;5.20;;;7.60;97.70;;;;;;5051130;28;20101;-73
2023/12/30 07:10:54;;;;;;;20.77;6.03;;;7.60;97.70;;;;;;5060494;28;20050;-76
2023/12/30 07:13:20;;;;;;;23.23;6.20;;;7.50;97.70;;;;;;5037908;28;20029;-75
2023/12/30 07:15:47;;;;;;;24.27;6.30;;;7.50;97.80;;;;;;5056333;28;20151;-75
2023/12/30 07:18:13;;;;;;;32.47;6.05;;;7.60;97.80;;;;;;5052642;28;20282;-76
2023/12/30 07:20:39;;;;;;;22.77;6.57;;;7.60;97.90;;;;;;5054506;28;20051;-75
2023/12/30 07:23:05;;;;;;;26.95;6.97;;;7.50;97.90;;;;;;5057566;28;20036;-74
2023/12/30 07:25:31;;;;;;;25.33;6.30;;;7.60;97.90;;;;;;5058084;28;20025;-76
2023/12/30 07:27:57;;;;;;;21.45;7.30;;;7.50;98.00;;;;;;5054843;28;20037;-75
2023/12/30 07:30:23;;;;;;;26.80;7.78;;;7.60;98.00;;;;;;5056539;28;20043;-75
2023/12/30 07:32:48;;;;;;;27.92;7.30;;;7.60;98.00;;;;;;5058493;28;20033;-75
2023/12/30 07:35:14;;;;;;;24.85;7.53;;;7.60;98.00;;;;;;5059958;28;20074;-75
2023/12/30 07:37:40;;;;;;;26.13;7.82;;;7.70;98.10;;;;;;5058030;28;20373;-75
2023/12/30 07:40:06;;;;;;;30.80;9.60;;;7.70;98.10;;;;;;5056919;28;20058;-75
2023/12/30 07:42:32;;;;;;;28.33;8.23;;;7.70;98.00;;;;;;5057337;28;20025;-75
2023/12/30 07:44:58;;;;;;;28.70;7.50;;;7.80;98.00;;;;;;5055388;28;20096;-75
2023/12/30 07:47:25;;;;;;;29.95;8.43;;;7.80;98.00;;;;;;5055907;28;20443;-75
2023/12/30 07:49:51;;;;;;;22.02;7.78;;;7.80;97.90;;;;;;5057874;28;20468;-75
2023/12/30 07:52:17;;;;;;;27.95;8.77;;;7.80;97.80;;;;;;5054494;28;20036;-75
2023/12/30 07:54:42;;;;;;;24.70;7.57;;;7.80;97.70;;;;;;5054817;28;20104;-74
2023/12/30 07:57:08;;;;;;;28.73;9.25;;;7.80;97.70;;;;;;5061477;28;20099;-76
2023/12/30 07:59:33;;;;;;;22.38;8.32;;;7.80;97.70;;;;;;5059464;28;20067;-75
2023/12/30 08:01:59;;;;;;;22.75;8.00;;;7.80;97.60;;;;;;5052093;28;20021;-76
2023/12/30 08:04:25;;;;;;;23.77;9.13;;;7.80;97.60;;;;;;5053773;28;20597;-74
2023/12/30 08:06:51;;;;;;;24.42;9.52;;;7.70;97.60;;;;;;5051772;28;20139;-75
2023/12/30 08:09:17;;;;;;;26.58;9.07;;;7.80;97.60;;;;;;5054494;28;20040;-75
2023/12/30 08:11:43;;;;;;;28.77;9.95;;;7.80;97.50;;;;;;5048836;28;20428;-75
2023/12/30 08:14:09;;;;;;;24.45;8.63;;;7.70;97.60;;;;;;5053860;28;20569;-75
2023/12/30 08:16:35;;;;;;;29.30;9.82;;;7.80;97.60;;;;;;5038137;28;20092;-73
2023/12/30 08:19:02;;;;;;;24.42;9.00;;;7.80;97.60;;;;;;5051372;28;20045;-75
2023/12/30 08:21:28;;;;;;;23.35;9.18;;;7.90;97.50;;;;;;5058349;28;20028;-76
2023/12/30 08:23:56;;;;;;;29.30;9.82;;;7.90;97.50;;;;;;5050002;28;20435;-76
2023/12/30 08:26:22;;;;;;;28.50;9.68;;;8.00;97.50;;;;;;5051377;28;20063;-76
2023/12/30 08:28:48;;;;;;;30.58;10.35;;;8.00;97.60;;;;;;5051556;28;20125;-77
2023/12/30 08:31:14;;;;;;;31.75;10.98;;;8.10;97.50;;;;;;5051712;28;20108;-75
2023/12/30 08:33:40;;;;;;;26.20;10.13;;;8.10;97.50;;;;;;5050780;28;20487;-75
2023/12/30 08:36:06;;;;;;;33.30;10.60;;;8.10;97.40;;;;;;5047275;28;20116;-76
2023/12/30 08:38:31;;;;;;;26.70;10.52;;;8.10;97.20;;;;;;5047389;28;20367;-75
2023/12/30 08:41:01;;;;;;;26.40;9.35;;;8.10;97.20;;;;;;5054407;28;20035;-75
2023/12/30 08:43:26;;;;;;;26.88;10.48;;;8.20;97.10;;;;;;5052647;28;20067;-74
2023/12/30 08:45:52;;;;;;;25.42;9.82;;;8.20;97.10;;;;;;5051135;28;20540;-75
2023/12/30 08:48:18;;;;;;;26.83;9.65;;;8.20;97.10;;;;;;5051814;28;20041;-76
2023/12/30 08:50:44;;;;;;;27.50;9.73;;;8.30;97.00;;;;;;5057334;28;20086;-75
2023/12/30 08:53:11;;;;;;;23.83;9.60;;;8.30;96.90;;;;;;5048326;28;20127;-75
2023/12/30 08:55:37;;;;;;;23.88;8.95;;;8.30;97.00;;;;;;5053708;28;20028;-75
2023/12/30 08:58:03;;;;;;;27.70;9.20;;;8.40;96.90;;;;;;5053156;28;20497;-75
2023/12/30 09:00:28;;;;;;;25.92;8.75;;;8.40;96.80;;;;;;5050060;28;20459;-74
2023/12/30 09:02:55;;;;;;;28.08;9.70;;;8.40;96.80;;;;;;5051846;28;20094;-75
2023/12/30 09:05:21;;;;;;;24.90;8.80;;;8.50;96.70;;;;;;5054203;28;20025;-76
2023/12/30 09:07:50;;;;;;;26.05;8.85;;;8.60;96.60;;;;;;5053858;28;20050;-73
2023/12/30 09:10:17;;;;;;;26.35;8.30;;;8.60;96.50;;;;;;5049496;28;21348;-75
2023/12/30 09:12:43;;;;;;;22.73;9.32;;;8.60;96.50;;;;;;5035900;28;20337;-75
2023/12/30 09:15:09;;;;;;;18.75;7.57;;;8.60;96.40;;;;;;5055850;28;20083;-75
2023/12/30 09:17:34;;;;;;;24.50;8.75;;;8.70;96.10;;;;;;5053107;28;20091;-75
2023/12/30 09:20:00;;;;;;;25.40;7.75;;;8.70;96.00;;;;;;5048694;28;20299;-76
2023/12/30 09:22:26;;;;;;;27.08;8.05;;;8.80;95.80;;;;;;5047925;28;20132;-75
2023/12/30 09:24:52;;;;;;;20.17;7.22;;;8.90;95.60;;;;;;5055523;28;20584;-75
2023/12/30 09:27:18;;;;;;;23.90;7.70;;;8.90;95.40;;;;;;5051667;28;20104;-75
2023/12/30 09:29:43;;;;;;;21.95;6.57;;;8.90;95.40;;;;;;5048124;28;20029;-75
2023/12/30 09:32:09;;;;;;;27.63;11.85;;;8.90;95.30;;;;;;5044023;28;20052;-76
2023/12/30 09:34:34;;;;;;;23.13;8.57;;;8.90;95.30;;;;;;5053597;28;20033;-74
2023/12/30 09:37:00;;;;;;;22.10;8.90;;;8.90;95.10;;;;;;5048128;28;20028;-73
2023/12/30 09:39:26;;;;;;;28.98;8.68;;;8.90;95.00;;;;;;5045227;28;20039;-75
2023/12/30 09:41:52;;;;;;;23.83;9.48;;;8.90;95.20;;;;;;5049194;28;20033;-75
2023/12/30 09:44:18;;;;;;;24.35;7.43;;;9.00;95.20;;;;;;5046135;28;20041;-75
2023/12/30 09:46:47;;;;;;;23.67;6.50;;;9.00;95.10;;;;;;5033964;28;20414;-74
2023/12/30 09:49:14;;;;;;;22.67;7.13;;;9.10;95.00;;;;;;5046652;28;20036;-75
2023/12/30 09:51:40;;;;;;;17.60;7.32;;;9.00;94.80;;;;;;5052547;28;20035;-75
2023/12/30 09:54:05;;;;;;;25.30;9.32;;;9.10;94.80;;;;;;5048671;28;20036;-75
2023/12/30 09:56:32;;;;;;;22.35;9.88;;;9.10;94.70;;;;;;5050051;28;20051;-76
2023/12/30 09:58:59;;;;;;;29.90;10.70;;;9.10;94.40;;;;;;5053361;28;23614;-75
2023/12/30 10:01:25;;;;;;;22.88;9.82;;;9.10;94.50;;;;;;5052482;28;20020;-75
2023/12/30 10:03:50;;;;;;;20.45;9.35;;;9.30;94.30;;;;;;5049309;28;20040;-75
2023/12/30 10:06:20;;;;;;;17.90;9.15;;;9.30;93.90;;;;;;5047907;28;20025;-76
2023/12/30 10:08:48;;;;;;;18.02;9.95;;;9.50;93.70;;;;;;5048581;28;20393;-75
2023/12/30 10:11:13;;;;;;;22.02;10.93;;;9.50;93.20;;;;;;5051552;28;20408;-75
2023/12/30 10:13:39;;;;;;;22.75;10.38;;;9.60;93.00;;;;;;5050723;28;20056;-75
2023/12/30 10:16:06;;;;;;;24.52;11.32;;;9.60;92.80;;;;;;5052982;28;20477;-75
2023/12/30 10:18:38;;;;;;;32.60;14.20;;;9.60;92.70;;;;;;5053478;28;20025;-76
2023/12/30 10:21:05;;;;;;;49.83;25.25;;;9.70;92.50;;;;;;5051072;28;20025;-75
2023/12/30 10:23:34;;;;;;;39.05;16.55;;;9.80;92.70;;;;;;5042713;28;20116;-75
2023/12/30 10:26:02;;;;;;;34.38;15.98;;;9.90;92.50;;;;;;5050602;28;20021;-74
2023/12/30 10:28:29;;;;;;;30.55;12.75;;;10.00;92.30;;;;;;5046626;28;20147;-74
2023/12/30 10:31:03;;;;;;;25.27;11.75;;;10.00;92.00;;;;;;5048213;28;20059;-75
2023/12/30 10:33:30;;;;;;;19.13;9.33;;;10.10;91.70;;;;;;5048689;28;20033;-75
2023/12/30 10:35:56;;;;;;;27.58;9.75;;;10.10;91.70;;;;;;5049463;28;20021;-75
2023/12/30 10:38:23;;;;;;;19.25;7.38;;;10.10;91.60;;;;;;5049753;28;20132;-74
2023/12/30 10:40:52;;;;;;;18.02;7.28;;;10.10;91.70;;;;;;5048115;28;20029;-75
2023/12/30 10:43:19;;;;;;;20.60;7.32;;;10.10;91.60;;;;;;5031633;28;20049;-74
2023/12/30 10:46:00;;;;;;;28.02;9.35;;;10.10;91.90;;;;;;5048688;28;20017;-75
2023/12/30 10:48:31;;;;;;;21.48;8.15;;;10.10;92.00;;;;;;5047422;28;20151;-73
2023/12/30 10:50:57;;;;;;;28.00;11.45;;;10.20;92.00;;;;;;5046578;28;20474;-76
2023/12/30 10:53:27;;;;;;;27.60;11.70;;;10.20;91.80;;;;;;5051370;28;20142;-75
2023/12/30 10:55:58;;;;;;;43.58;24.15;;;10.20;91.80;;;;;;5047318;28;20328;-72
2023/12/30 10:58:25;;;;;;;44.42;23.92;;;10.20;91.80;;;;;;5051423;28;20119;-74
2023/12/30 11:01:01;;;;;;;29.10;15.18;;;10.40;91.80;;;;;;5051367;28;20548;-74
2023/12/30 11:03:29;;;;;;;27.60;15.38;;;10.50;91.40;;;;;;5049687;28;20143;-74
2023/12/30 11:06:15;;;;;;;20.23;10.02;;;10.60;91.10;;;;;;5047279;28;20055;-75
2023/12/30 11:08:44;;;;;;;26.17;11.80;;;10.60;90.90;;;;;;5039490;28;20090;-75
2023/12/30 11:11:17;;;;;;;20.05;7.97;;;10.60;91.00;;;;;;5044857;28;20168;-76
2023/12/30 11:13:44;;;;;;;20.13;8.65;;;10.60;90.80;;;;;;5049400;28;20423;-73
2023/12/30 11:16:17;;;;;;;23.92;11.32;;;10.60;90.60;;;;;;5032486;28;20457;-74
2023/12/30 11:18:46;;;;;;;24.10;8.93;;;10.60;90.50;;;;;;5046632;28;20029;-74
2023/12/30 11:21:12;;;;;;;25.55;13.57;;;10.60;90.50;;;;;;5047176;28;20228;-74
2023/12/30 11:23:38;;;;;;;30.08;14.30;;;10.60;90.80;;;;;;5045393;28;20048;-73
2023/12/30 11:26:13;;;;;;;33.90;14.30;;;10.70;90.50;;;;;;5048703;28;20104;-75
2023/12/30 11:28:42;;;;;;;25.50;10.73;;;10.80;90.30;;;;;;5036139;28;20426;-75
2023/12/30 11:31:09;;;;;;;34.22;21.23;;;10.70;90.40;;;;;;5050982;28;20152;-75
2023/12/30 11:33:34;;;;;;;27.73;16.20;;;10.80;90.40;;;;;;5050597;28;20500;-75
2023/12/30 11:36:03;;;;;;;29.35;18.23;;;10.80;90.30;;;;;;5052580;28;20024;-74
2023/12/30 11:38:31;;;;;;;21.00;10.75;;;10.90;90.20;;;;;;5049441;28;20483;-75
2023/12/30 11:40:57;;;;;;;20.52;11.38;;;11.00;90.10;;;;;;5074473;28;20179;-75
2023/12/30 11:43:25;;;;;;;18.55;8.05;;;11.00;89.80;;;;;;5083014;28;20027;-76
2023/12/30 11:45:51;;;;;;;20.50;10.07;;;10.90;89.80;;;;;;5058737;28;20030;-76
2023/12/30 11:48:17;;;;;;;16.10;8.68;;;11.00;89.90;;;;;;5053103;28;20059;-76
2023/12/30 11:50:43;;;;;;;20.30;10.15;;;11.00;89.90;;;;;;5047487;28;20029;-75
2023/12/30 11:53:09;;;;;;;16.90;7.57;;;11.00;89.90;;;;;;5051719;28;20044;-73
2023/12/30 11:55:34;;;;;;;13.38;6.30;;;11.10;90.10;;;;;;5056921;28;20047;-74
2023/12/30 11:58:00;;;;;;;16.02;6.72;;;11.10;89.80;;;;;;5054663;28;20140;-74
2023/12/30 12:00:26;;;;;;;17.63;6.97;;;11.00;89.50;;;;;;5035173;28;20371;-75
2023/12/30 12:02:57;;;;;;;15.10;5.38;;;10.90;89.80;;;;;;5053097;28;20032;-75
2023/12/30 12:05:23;;;;;;;15.48;4.00;;;11.00;89.80;;;;;;5054364;28;20500;-74
2023/12/30 12:07:49;;;;;;;15.20;4.53;;;10.90;89.80;;;;;;5040548;28;20082;-75
2023/12/30 12:10:14;;;;;;;17.73;4.03;;;10.80;90.00;;;;;;5048958;28;20033;-76
2023/12/30 12:12:45;;;;;;;14.02;4.35;;;10.70;90.10;;;;;;5051772;28;20118;-74
2023/12/30 12:15:12;;;;;;;16.08;4.47;;;10.70;90.30;;;;;;5052953;28;20460;-75
2023/12/30 12:17:37;;;;;;;13.57;3.95;;;10.70;90.40;;;;;;5056049;28;20539;-75
2023/12/30 12:20:08;;;;;;;12.52;4.10;;;10.70;90.20;;;;;;5052621;28;21783;-75
2023/12/30 12:22:34;;;;;;;17.65;4.47;;;10.70;90.20;;;;;;5051868;28;20037;-74
2023/12/30 12:25:02;;;;;;;16.20;5.30;;;10.80;90.10;;;;;;5058459;28;20090;-75
2023/12/30 12:27:29;;;;;;;13.80;3.92;;;10.90;90.00;;;;;;5050889;28;20475;-72
2023/12/30 12:29:56;;;;;;;14.27;4.10;;;10.90;89.90;;;;;;5048998;28;20067;-74
2023/12/30 12:32:23;;;;;;;12.85;3.70;;;10.90;89.50;;;;;;5026509;28;20435;-74
2023/12/30 12:34:49;;;;;;;16.23;3.47;;;11.00;89.50;;;;;;5051184;28;20028;-74
2023/12/30 12:37:19;;;;;;;14.43;4.30;;;11.00;89.40;;;;;;5032305;28;20028;-75
2023/12/30 12:39:46;;;;;;;12.50;4.22;;;11.10;89.40;;;;;;5048981;28;20055;-75